sensor_id;sensor_type;location;lat;lon;timestamp;P1;durP1;ratioP1;P2;durP2;ratioP2
7047;SDS011;3565;53.254;10.352;2023-04-15T00:00:41;17.93;;;12.17;;
7047;SDS011;3565;53.254;10.352;2023-04-15T00:03:10;18.77;;;12.33;;
7047;SDS011;3565;53.254;10.352;2023-04-15T00:05:39;16.07;;;10.90;;
7047;SDS011;3565;53.254;10.352;2023-04-15T00:10:49;12.67;;;8.93;;
7047;SDS011;3565;53.254;10.352;2023-04-15T00:13:19;13.20;;;9.53;;
7047;SDS011;3565;53.254;10.352;2023-04-15T00:18:26;14.20;;;9.27;;
7047;SDS011;3565;53.254;10.352;2023-04-15T00:23:36;13.27;;;7.63;;
7047;SDS011;3565;53.254;10.352;2023-04-15T00:26:06;9.73;;;7.63;;
7047;SDS011;3565;53.254;10.352;2023-04-15T00:28:45;10.33;;;7.67;;
7047;SDS011;3565;53.254;10.352;2023-04-15T00:33:51;11.53;;;8.40;;
7047;SDS011;3565;53.254;10.352;2023-04-15T00:36:21;12.63;;;9.03;;
7047;SDS011;3565;53.254;10.352;2023-04-15T00:41:28;12.87;;;8.97;;
7047;SDS011;3565;53.254;10.352;2023-04-15T00:44:00;13.10;;;9.30;;
7047;SDS011;3565;53.254;10.352;2023-04-15T00:46:42;13.43;;;8.97;;
7047;SDS011;3565;53.254;10.352;2023-04-15T00:49:22;13.90;;;9.57;;
7047;SDS011;3565;53.254;10.352;2023-04-15T00:51:52;14.97;;;9.87;;
7047;SDS011;3565;53.254;10.352;2023-04-15T00:54:22;12.93;;;9.60;;
7047;SDS011;3565;53.254;10.352;2023-04-15T00:59:29;12.90;;;9.40;;
7047;SDS011;3565;53.254;10.352;2023-04-15T01:04:40;13.50;;;9.43;;
7047;SDS011;3565;53.254;10.352;2023-04-15T01:07:09;12.93;;;8.83;;
7047;SDS011;3565;53.254;10.352;2023-04-15T01:09:48;12.93;;;9.10;;
7047;SDS011;3565;53.254;10.352;2023-04-15T01:14:58;12.00;;;8.60;;
7047;SDS011;3565;53.254;10.352;2023-04-15T01:17:28;11.83;;;8.80;;
7047;SDS011;3565;53.254;10.352;2023-04-15T01:22:35;12.77;;;9.37;;
7047;SDS011;3565;53.254;10.352;2023-04-15T01:25:08;11.87;;;8.37;;
7047;SDS011;3565;53.254;10.352;2023-04-15T01:27:50;13.03;;;9.03;;
7047;SDS011;3565;53.254;10.352;2023-04-15T01:30:19;12.17;;;8.47;;
7047;SDS011;3565;53.254;10.352;2023-04-15T01:32:48;13.00;;;9.43;;
7047;SDS011;3565;53.254;10.352;2023-04-15T01:35:27;14.03;;;8.57;;
7047;SDS011;3565;53.254;10.352;2023-04-15T01:37:58;14.13;;;9.53;;
7047;SDS011;3565;53.254;10.352;2023-04-15T01:40:43;13.83;;;9.43;;
7047;SDS011;3565;53.254;10.352;2023-04-15T01:45:51;12.60;;;9.37;;
7047;SDS011;3565;53.254;10.352;2023-04-15T01:48:21;14.87;;;10.70;;
7047;SDS011;3565;53.254;10.352;2023-04-15T01:53:28;14.00;;;9.20;;
7047;SDS011;3565;53.254;10.352;2023-04-15T01:55:58;14.47;;;10.13;;
7047;SDS011;3565;53.254;10.352;2023-04-15T01:58:37;14.13;;;9.63;;
7047;SDS011;3565;53.254;10.352;2023-04-15T02:03:44;11.83;;;9.10;;
7047;SDS011;3565;53.254;10.352;2023-04-15T02:08:51;15.03;;;10.07;;
7047;SDS011;3565;53.254;10.352;2023-04-15T02:11:21;12.40;;;9.17;;
7047;SDS011;3565;53.254;10.352;2023-04-15T02:13:59;15.97;;;10.00;;
7047;SDS011;3565;53.254;10.352;2023-04-15T02:16:29;14.30;;;10.30;;
7047;SDS011;3565;53.254;10.352;2023-04-15T02:21:37;14.90;;;9.63;;
7047;SDS011;3565;53.254;10.352;2023-04-15T02:24:09;15.57;;;10.33;;
7047;SDS011;3565;53.254;10.352;2023-04-15T02:26:48;15.13;;;10.10;;
7047;SDS011;3565;53.254;10.352;2023-04-15T02:29:17;16.50;;;11.23;;
7047;SDS011;3565;53.254;10.352;2023-04-15T02:31:47;16.27;;;10.63;;
7047;SDS011;3565;53.254;10.352;2023-04-15T02:36:55;15.27;;;10.70;;
7047;SDS011;3565;53.254;10.352;2023-04-15T02:39:25;18.10;;;11.50;;
7047;SDS011;3565;53.254;10.352;2023-04-15T02:42:04;16.87;;;10.50;;
7047;SDS011;3565;53.254;10.352;2023-04-15T02:44:33;15.40;;;10.17;;
7047;SDS011;3565;53.254;10.352;2023-04-15T02:49:41;14.63;;;10.57;;
7047;SDS011;3565;53.254;10.352;2023-04-15T02:54:48;16.37;;;11.03;;
7047;SDS011;3565;53.254;10.352;2023-04-15T02:57:18;15.70;;;10.97;;
7047;SDS011;3565;53.254;10.352;2023-04-15T02:59:48;14.90;;;10.33;;
7047;SDS011;3565;53.254;10.352;2023-04-15T03:04:54;16.27;;;11.23;;
7047;SDS011;3565;53.254;10.352;2023-04-15T03:07:24;16.57;;;11.07;;
7047;SDS011;3565;53.254;10.352;2023-04-15T03:09:53;16.87;;;10.77;;
7047;SDS011;3565;53.254;10.352;2023-04-15T03:12:23;18.53;;;11.27;;
7047;SDS011;3565;53.254;10.352;2023-04-15T03:17:29;18.23;;;12.10;;
7047;SDS011;3565;53.254;10.352;2023-04-15T03:22:37;19.17;;;12.20;;
7047;SDS011;3565;53.254;10.352;2023-04-15T03:25:07;18.73;;;11.97;;
7047;SDS011;3565;53.254;10.352;2023-04-15T03:27:49;20.47;;;12.73;;
7047;SDS011;3565;53.254;10.352;2023-04-15T03:32:56;24.37;;;13.23;;
7047;SDS011;3565;53.254;10.352;2023-04-15T03:35:25;25.03;;;13.63;;
7047;SDS011;3565;53.254;10.352;2023-04-15T03:37:55;22.37;;;13.63;;
7047;SDS011;3565;53.254;10.352;2023-04-15T03:40:33;23.13;;;13.57;;
7047;SDS011;3565;53.254;10.352;2023-04-15T03:45:42;27.07;;;14.23;;
7047;SDS011;3565;53.254;10.352;2023-04-15T03:48:11;24.43;;;14.40;;
7047;SDS011;3565;53.254;10.352;2023-04-15T03:50:50;24.70;;;13.97;;
7047;SDS011;3565;53.254;10.352;2023-04-15T03:53:19;27.80;;;14.47;;
7047;SDS011;3565;53.254;10.352;2023-04-15T03:58:28;27.57;;;15.97;;
7047;SDS011;3565;53.254;10.352;2023-04-15T04:03:36;25.43;;;14.43;;
7047;SDS011;3565;53.254;10.352;2023-04-15T04:06:07;30.03;;;16.10;;
7047;SDS011;3565;53.254;10.352;2023-04-15T04:08:46;28.60;;;16.07;;
7047;SDS011;3565;53.254;10.352;2023-04-15T04:13:53;28.13;;;16.57;;
7047;SDS011;3565;53.254;10.352;2023-04-15T04:16:22;33.33;;;16.57;;
7047;SDS011;3565;53.254;10.352;2023-04-15T04:18:52;28.73;;;15.73;;
7047;SDS011;3565;53.254;10.352;2023-04-15T04:21:21;31.03;;;16.60;;
7047;SDS011;3565;53.254;10.352;2023-04-15T04:26:27;31.10;;;16.23;;
7047;SDS011;3565;53.254;10.352;2023-04-15T04:31:34;28.00;;;16.17;;
7047;SDS011;3565;53.254;10.352;2023-04-15T04:34:03;32.53;;;17.23;;
7047;SDS011;3565;53.254;10.352;2023-04-15T04:36:41;29.33;;;16.30;;
7047;SDS011;3565;53.254;10.352;2023-04-15T04:41:50;35.10;;;17.37;;
7047;SDS011;3565;53.254;10.352;2023-04-15T04:44:19;31.43;;;17.00;;
7047;SDS011;3565;53.254;10.352;2023-04-15T04:46:49;34.03;;;17.43;;
7047;SDS011;3565;53.254;10.352;2023-04-15T04:49:28;31.40;;;17.10;;
7047;SDS011;3565;53.254;10.352;2023-04-15T04:54:36;32.63;;;17.40;;
7047;SDS011;3565;53.254;10.352;2023-04-15T04:57:05;30.97;;;16.93;;
7047;SDS011;3565;53.254;10.352;2023-04-15T04:59:44;32.93;;;17.07;;
7047;SDS011;3565;53.254;10.352;2023-04-15T05:04:53;33.10;;;16.30;;
7047;SDS011;3565;53.254;10.352;2023-04-15T05:07:23;34.13;;;16.87;;
7047;SDS011;3565;53.254;10.352;2023-04-15T05:12:33;31.20;;;16.40;;
7047;SDS011;3565;53.254;10.352;2023-04-15T05:17:44;35.10;;;17.97;;
7047;SDS011;3565;53.254;10.352;2023-04-15T05:23:02;34.70;;;16.47;;
7047;SDS011;3565;53.254;10.352;2023-04-15T05:25:41;38.50;;;18.13;;
7047;SDS011;3565;53.254;10.352;2023-04-15T05:28:11;35.60;;;17.37;;
7047;SDS011;3565;53.254;10.352;2023-04-15T05:30:49;38.67;;;16.80;;
7047;SDS011;3565;53.254;10.352;2023-04-15T05:35:56;37.90;;;17.70;;
7047;SDS011;3565;53.254;10.352;2023-04-15T05:38:26;43.23;;;18.97;;
7047;SDS011;3565;53.254;10.352;2023-04-15T05:46:13;44.07;;;20.97;;
7047;SDS011;3565;53.254;10.352;2023-04-15T05:48:44;40.67;;;19.70;;
7047;SDS011;3565;53.254;10.352;2023-04-15T05:53:50;45.53;;;20.20;;
7047;SDS011;3565;53.254;10.352;2023-04-15T05:56:20;48.23;;;20.53;;
7047;SDS011;3565;53.254;10.352;2023-04-15T06:01:26;48.67;;;22.70;;
7047;SDS011;3565;53.254;10.352;2023-04-15T06:03:56;49.20;;;22.30;;
7047;SDS011;3565;53.254;10.352;2023-04-15T06:06:26;57.97;;;24.33;;
7047;SDS011;3565;53.254;10.352;2023-04-15T06:11:32;57.43;;;25.03;;
7047;SDS011;3565;53.254;10.352;2023-04-15T06:14:01;58.93;;;25.97;;
7047;SDS011;3565;53.254;10.352;2023-04-15T06:16:40;60.50;;;26.23;;
7047;SDS011;3565;53.254;10.352;2023-04-15T06:21:47;62.77;;;26.53;;
7047;SDS011;3565;53.254;10.352;2023-04-15T06:24:17;61.10;;;27.83;;
7047;SDS011;3565;53.254;10.352;2023-04-15T06:26:55;64.43;;;27.60;;
7047;SDS011;3565;53.254;10.352;2023-04-15T06:29:26;67.97;;;28.90;;
7047;SDS011;3565;53.254;10.352;2023-04-15T06:34:32;62.37;;;27.57;;
7047;SDS011;3565;53.254;10.352;2023-04-15T06:37:01;68.20;;;29.53;;
7047;SDS011;3565;53.254;10.352;2023-04-15T06:39:43;70.57;;;28.63;;
7047;SDS011;3565;53.254;10.352;2023-04-15T06:44:49;65.03;;;27.97;;
7047;SDS011;3565;53.254;10.352;2023-04-15T06:47:19;68.63;;;28.63;;
7047;SDS011;3565;53.254;10.352;2023-04-15T06:52:25;68.53;;;30.87;;
7047;SDS011;3565;53.254;10.352;2023-04-15T06:54:55;64.53;;;29.87;;
7047;SDS011;3565;53.254;10.352;2023-04-15T07:00:03;71.63;;;32.43;;
7047;SDS011;3565;53.254;10.352;2023-04-15T07:05:13;64.33;;;31.40;;
7047;SDS011;3565;53.254;10.352;2023-04-15T07:07:44;59.50;;;31.33;;
7047;SDS011;3565;53.254;10.352;2023-04-15T07:12:54;60.63;;;34.23;;
7047;SDS011;3565;53.254;10.352;2023-04-15T07:15:24;58.43;;;32.53;;
7047;SDS011;3565;53.254;10.352;2023-04-15T07:17:54;59.60;;;32.83;;
7047;SDS011;3565;53.254;10.352;2023-04-15T07:20:23;63.63;;;34.97;;
7047;SDS011;3565;53.254;10.352;2023-04-15T07:25:30;62.10;;;33.53;;
7047;SDS011;3565;53.254;10.352;2023-04-15T07:27:59;56.43;;;32.30;;
7047;SDS011;3565;53.254;10.352;2023-04-15T07:30:39;61.17;;;33.83;;
7047;SDS011;3565;53.254;10.352;2023-04-15T07:35:46;60.27;;;32.47;;
7047;SDS011;3565;53.254;10.352;2023-04-15T07:38:17;58.13;;;32.80;;
7047;SDS011;3565;53.254;10.352;2023-04-15T07:40:55;57.77;;;32.00;;
7047;SDS011;3565;53.254;10.352;2023-04-15T07:43:26;57.40;;;33.03;;
7047;SDS011;3565;53.254;10.352;2023-04-15T07:45:56;60.07;;;33.03;;
7047;SDS011;3565;53.254;10.352;2023-04-15T07:48:25;57.20;;;31.73;;
7047;SDS011;3565;53.254;10.352;2023-04-15T07:50:54;58.63;;;31.90;;
7047;SDS011;3565;53.254;10.352;2023-04-15T07:53:33;60.13;;;33.27;;
7047;SDS011;3565;53.254;10.352;2023-04-15T07:56:03;57.93;;;32.53;;
7047;SDS011;3565;53.254;10.352;2023-04-15T07:58:42;56.73;;;32.57;;
7047;SDS011;3565;53.254;10.352;2023-04-15T08:03:49;62.97;;;33.10;;
7047;SDS011;3565;53.254;10.352;2023-04-15T08:06:18;66.73;;;33.33;;
7047;SDS011;3565;53.254;10.352;2023-04-15T08:11:25;61.47;;;33.80;;
7047;SDS011;3565;53.254;10.352;2023-04-15T08:13:56;61.07;;;33.93;;
7047;SDS011;3565;53.254;10.352;2023-04-15T08:16:27;62.23;;;34.07;;
7047;SDS011;3565;53.254;10.352;2023-04-15T08:21:37;60.13;;;34.03;;
7047;SDS011;3565;53.254;10.352;2023-04-15T08:24:07;61.20;;;33.80;;
7047;SDS011;3565;53.254;10.352;2023-04-15T08:26:45;58.77;;;33.77;;
7047;SDS011;3565;53.254;10.352;2023-04-15T08:31:53;58.50;;;33.33;;
7047;SDS011;3565;53.254;10.352;2023-04-15T08:34:24;64.80;;;33.77;;
7047;SDS011;3565;53.254;10.352;2023-04-15T08:37:02;59.13;;;34.17;;
7047;SDS011;3565;53.254;10.352;2023-04-15T08:39:32;60.60;;;33.67;;
7047;SDS011;3565;53.254;10.352;2023-04-15T08:42:01;62.07;;;34.40;;
7047;SDS011;3565;53.254;10.352;2023-04-15T08:44:40;66.87;;;34.60;;
7047;SDS011;3565;53.254;10.352;2023-04-15T08:47:12;60.40;;;32.93;;
7047;SDS011;3565;53.254;10.352;2023-04-15T08:49:43;60.33;;;34.17;;
7047;SDS011;3565;53.254;10.352;2023-04-15T08:52:14;57.70;;;33.13;;
7047;SDS011;3565;53.254;10.352;2023-04-15T08:54:43;60.03;;;33.87;;
7047;SDS011;3565;53.254;10.352;2023-04-15T08:57:12;60.13;;;32.73;;
7047;SDS011;3565;53.254;10.352;2023-04-15T09:02:20;55.53;;;31.97;;
7047;SDS011;3565;53.254;10.352;2023-04-15T09:04:51;56.90;;;33.30;;
7047;SDS011;3565;53.254;10.352;2023-04-15T09:07:30;58.97;;;32.53;;
7047;SDS011;3565;53.254;10.352;2023-04-15T09:12:39;54.50;;;30.90;;
7047;SDS011;3565;53.254;10.352;2023-04-15T09:15:10;53.23;;;30.67;;
7047;SDS011;3565;53.254;10.352;2023-04-15T09:17:52;55.30;;;30.73;;
7047;SDS011;3565;53.254;10.352;2023-04-15T09:20:23;51.93;;;29.93;;
7047;SDS011;3565;53.254;10.352;2023-04-15T09:22:52;51.30;;;30.13;;
7047;SDS011;3565;53.254;10.352;2023-04-15T09:28:05;54.20;;;30.70;;
7047;SDS011;3565;53.254;10.352;2023-04-15T09:33:13;54.43;;;30.03;;
7047;SDS011;3565;53.254;10.352;2023-04-15T09:35:59;50.17;;;29.87;;
7047;SDS011;3565;53.254;10.352;2023-04-15T09:38:31;49.03;;;30.27;;
7047;SDS011;3565;53.254;10.352;2023-04-15T09:41:01;52.47;;;29.10;;
7047;SDS011;3565;53.254;10.352;2023-04-15T09:43:40;52.83;;;30.33;;
7047;SDS011;3565;53.254;10.352;2023-04-15T09:46:12;48.63;;;28.57;;
7047;SDS011;3565;53.254;10.352;2023-04-15T09:48:53;53.40;;;29.97;;
7047;SDS011;3565;53.254;10.352;2023-04-15T09:51:44;51.30;;;29.60;;
7047;SDS011;3565;53.254;10.352;2023-04-15T09:54:13;42.40;;;26.87;;
7047;SDS011;3565;53.254;10.352;2023-04-15T09:56:55;49.10;;;28.53;;
7047;SDS011;3565;53.254;10.352;2023-04-15T09:59:27;46.70;;;29.03;;
7047;SDS011;3565;53.254;10.352;2023-04-15T10:01:56;44.93;;;28.27;;
7047;SDS011;3565;53.254;10.352;2023-04-15T10:04:26;46.87;;;28.33;;
7047;SDS011;3565;53.254;10.352;2023-04-15T10:06:56;44.60;;;28.20;;
7047;SDS011;3565;53.254;10.352;2023-04-15T10:09:27;45.50;;;28.40;;
7047;SDS011;3565;53.254;10.352;2023-04-15T10:14:35;42.07;;;26.63;;
7047;SDS011;3565;53.254;10.352;2023-04-15T10:19:44;40.27;;;25.90;;
7047;SDS011;3565;53.254;10.352;2023-04-15T10:24:52;39.80;;;26.00;;
7047;SDS011;3565;53.254;10.352;2023-04-15T10:27:22;39.90;;;25.57;;
7047;SDS011;3565;53.254;10.352;2023-04-15T10:29:52;39.57;;;25.43;;
7047;SDS011;3565;53.254;10.352;2023-04-15T10:32:34;38.67;;;24.60;;
7047;SDS011;3565;53.254;10.352;2023-04-15T10:35:04;38.30;;;25.63;;
7047;SDS011;3565;53.254;10.352;2023-04-15T10:37:45;39.23;;;25.17;;
7047;SDS011;3565;53.254;10.352;2023-04-15T10:40:25;40.67;;;25.77;;
7047;SDS011;3565;53.254;10.352;2023-04-15T10:45:34;34.77;;;24.57;;
7047;SDS011;3565;53.254;10.352;2023-04-15T10:48:05;36.07;;;24.27;;
7047;SDS011;3565;53.254;10.352;2023-04-15T10:50:48;36.07;;;24.47;;
7047;SDS011;3565;53.254;10.352;2023-04-15T10:56:07;37.33;;;24.87;;
7047;SDS011;3565;53.254;10.352;2023-04-15T11:01:22;33.50;;;23.17;;
7047;SDS011;3565;53.254;10.352;2023-04-15T11:04:10;34.87;;;24.30;;
7047;SDS011;3565;53.254;10.352;2023-04-15T11:06:43;31.27;;;23.13;;
7047;SDS011;3565;53.254;10.352;2023-04-15T11:09:30;29.33;;;22.10;;
7047;SDS011;3565;53.254;10.352;2023-04-15T11:14:45;29.03;;;22.47;;
7047;SDS011;3565;53.254;10.352;2023-04-15T11:17:14;28.10;;;21.60;;
7047;SDS011;3565;53.254;10.352;2023-04-15T11:22:31;26.93;;;21.47;;
7047;SDS011;3565;53.254;10.352;2023-04-15T11:25:00;29.63;;;22.73;;
7047;SDS011;3565;53.254;10.352;2023-04-15T11:27:39;28.63;;;23.07;;
7047;SDS011;3565;53.254;10.352;2023-04-15T11:30:17;27.20;;;21.27;;
7047;SDS011;3565;53.254;10.352;2023-04-15T11:32:48;27.63;;;21.70;;
7047;SDS011;3565;53.254;10.352;2023-04-15T11:37:55;31.13;;;22.60;;
7047;SDS011;3565;53.254;10.352;2023-04-15T11:40:27;32.03;;;22.27;;
7047;SDS011;3565;53.254;10.352;2023-04-15T11:43:12;31.77;;;23.50;;
7047;SDS011;3565;53.254;10.352;2023-04-15T11:45:50;33.57;;;22.87;;
7047;SDS011;3565;53.254;10.352;2023-04-15T11:48:31;29.93;;;22.13;;
7047;SDS011;3565;53.254;10.352;2023-04-15T11:53:41;31.70;;;23.33;;
7047;SDS011;3565;53.254;10.352;2023-04-15T11:56:16;32.27;;;22.87;;
7047;SDS011;3565;53.254;10.352;2023-04-15T11:58:54;32.77;;;23.67;;
7047;SDS011;3565;53.254;10.352;2023-04-15T12:01:30;28.23;;;22.20;;
7047;SDS011;3565;53.254;10.352;2023-04-15T12:06:37;30.57;;;23.17;;
7047;SDS011;3565;53.254;10.352;2023-04-15T12:11:44;30.83;;;22.20;;
7047;SDS011;3565;53.254;10.352;2023-04-15T12:14:23;32.30;;;22.63;;
7047;SDS011;3565;53.254;10.352;2023-04-15T12:16:54;30.27;;;23.33;;
7047;SDS011;3565;53.254;10.352;2023-04-15T12:19:29;29.00;;;22.50;;
7047;SDS011;3565;53.254;10.352;2023-04-15T12:22:08;29.20;;;21.90;;
7047;SDS011;3565;53.254;10.352;2023-04-15T12:24:41;28.83;;;21.37;;
7047;SDS011;3565;53.254;10.352;2023-04-15T12:27:20;30.00;;;22.40;;
7047;SDS011;3565;53.254;10.352;2023-04-15T12:29:56;30.77;;;22.87;;
7047;SDS011;3565;53.254;10.352;2023-04-15T12:32:33;30.20;;;21.93;;
7047;SDS011;3565;53.254;10.352;2023-04-15T12:35:03;28.70;;;22.10;;
7047;SDS011;3565;53.254;10.352;2023-04-15T12:40:11;25.27;;;20.50;;
7047;SDS011;3565;53.254;10.352;2023-04-15T12:42:41;25.00;;;19.70;;
7047;SDS011;3565;53.254;10.352;2023-04-15T12:47:47;23.30;;;18.77;;
7047;SDS011;3565;53.254;10.352;2023-04-15T12:52:54;22.63;;;19.80;;
7047;SDS011;3565;53.254;10.352;2023-04-15T12:55:23;20.33;;;17.73;;
7047;SDS011;3565;53.254;10.352;2023-04-15T13:00:30;22.50;;;18.63;;
7047;SDS011;3565;53.254;10.352;2023-04-15T13:05:42;23.67;;;18.93;;
7047;SDS011;3565;53.254;10.352;2023-04-15T13:08:11;22.30;;;17.80;;
7047;SDS011;3565;53.254;10.352;2023-04-15T13:10:50;20.07;;;17.10;;
7047;SDS011;3565;53.254;10.352;2023-04-15T13:15:56;24.73;;;18.70;;
7047;SDS011;3565;53.254;10.352;2023-04-15T13:18:26;21.60;;;17.73;;
7047;SDS011;3565;53.254;10.352;2023-04-15T13:23:33;21.33;;;17.90;;
7047;SDS011;3565;53.254;10.352;2023-04-15T13:26:03;20.97;;;18.10;;
7047;SDS011;3565;53.254;10.352;2023-04-15T13:28:41;21.67;;;19.10;;
7047;SDS011;3565;53.254;10.352;2023-04-15T13:33:48;20.73;;;17.90;;
7047;SDS011;3565;53.254;10.352;2023-04-15T13:36:17;25.57;;;18.93;;
7047;SDS011;3565;53.254;10.352;2023-04-15T13:38:56;22.13;;;18.83;;
7047;SDS011;3565;53.254;10.352;2023-04-15T13:41:26;25.13;;;19.50;;
7047;SDS011;3565;53.254;10.352;2023-04-15T13:43:55;24.70;;;18.73;;
7047;SDS011;3565;53.254;10.352;2023-04-15T13:46:33;25.33;;;19.73;;
7047;SDS011;3565;53.254;10.352;2023-04-15T13:51:43;25.47;;;19.03;;
7047;SDS011;3565;53.254;10.352;2023-04-15T13:54:15;22.77;;;18.40;;
7047;SDS011;3565;53.254;10.352;2023-04-15T13:56:47;20.63;;;17.73;;
7047;SDS011;3565;53.254;10.352;2023-04-15T13:59:26;22.27;;;18.93;;
7047;SDS011;3565;53.254;10.352;2023-04-15T14:01:56;22.47;;;18.27;;
7047;SDS011;3565;53.254;10.352;2023-04-15T14:04:25;22.53;;;17.27;;
7047;SDS011;3565;53.254;10.352;2023-04-15T14:06:54;19.17;;;16.90;;
7047;SDS011;3565;53.254;10.352;2023-04-15T14:09:23;20.53;;;16.77;;
7047;SDS011;3565;53.254;10.352;2023-04-15T14:14:33;19.57;;;16.73;;
7047;SDS011;3565;53.254;10.352;2023-04-15T14:17:03;20.77;;;16.37;;
7047;SDS011;3565;53.254;10.352;2023-04-15T14:19:42;30.93;;;26.37;;
7047;SDS011;3565;53.254;10.352;2023-04-15T14:24:48;19.47;;;16.70;;
7047;SDS011;3565;53.254;10.352;2023-04-15T14:27:21;20.50;;;16.07;;
7047;SDS011;3565;53.254;10.352;2023-04-15T14:29:50;19.80;;;15.20;;
7047;SDS011;3565;53.254;10.352;2023-04-15T14:32:29;18.67;;;16.40;;
7047;SDS011;3565;53.254;10.352;2023-04-15T14:34:59;17.07;;;15.27;;
7047;SDS011;3565;53.254;10.352;2023-04-15T14:37:38;16.70;;;13.30;;
7047;SDS011;3565;53.254;10.352;2023-04-15T14:42:45;15.33;;;13.33;;
7047;SDS011;3565;53.254;10.352;2023-04-15T14:45:14;14.53;;;13.00;;
7047;SDS011;3565;53.254;10.352;2023-04-15T14:47:53;15.97;;;13.73;;
7047;SDS011;3565;53.254;10.352;2023-04-15T14:50:23;15.57;;;12.30;;
7047;SDS011;3565;53.254;10.352;2023-04-15T14:53:01;14.20;;;12.70;;
7047;SDS011;3565;53.254;10.352;2023-04-15T14:55:32;15.33;;;13.53;;
7047;SDS011;3565;53.254;10.352;2023-04-15T14:58:11;15.67;;;13.97;;
7047;SDS011;3565;53.254;10.352;2023-04-15T15:00:42;18.00;;;12.93;;
7047;SDS011;3565;53.254;10.352;2023-04-15T15:05:49;17.53;;;14.10;;
7047;SDS011;3565;53.254;10.352;2023-04-15T15:08:19;17.10;;;13.67;;
7047;SDS011;3565;53.254;10.352;2023-04-15T15:13:29;17.33;;;14.57;;
7047;SDS011;3565;53.254;10.352;2023-04-15T15:15:58;16.93;;;14.90;;
7047;SDS011;3565;53.254;10.352;2023-04-15T15:18:37;18.60;;;15.60;;
7047;SDS011;3565;53.254;10.352;2023-04-15T15:21:06;16.70;;;14.40;;
7047;SDS011;3565;53.254;10.352;2023-04-15T15:23:35;17.33;;;14.80;;
7047;SDS011;3565;53.254;10.352;2023-04-15T15:28:41;16.87;;;13.97;;
7047;SDS011;3565;53.254;10.352;2023-04-15T15:31:11;16.00;;;13.47;;
7047;SDS011;3565;53.254;10.352;2023-04-15T15:36:19;17.87;;;14.57;;
7047;SDS011;3565;53.254;10.352;2023-04-15T15:38:48;15.30;;;13.63;;
7047;SDS011;3565;53.254;10.352;2023-04-15T15:41:18;16.57;;;13.37;;
7047;SDS011;3565;53.254;10.352;2023-04-15T15:46:25;21.53;;;14.90;;
7047;SDS011;3565;53.254;10.352;2023-04-15T15:51:35;17.90;;;14.70;;
7047;SDS011;3565;53.254;10.352;2023-04-15T15:54:05;17.13;;;14.60;;
7047;SDS011;3565;53.254;10.352;2023-04-15T15:56:45;18.60;;;15.97;;
7047;SDS011;3565;53.254;10.352;2023-04-15T15:59:14;19.33;;;15.10;;
7047;SDS011;3565;53.254;10.352;2023-04-15T16:04:20;18.00;;;15.70;;
7047;SDS011;3565;53.254;10.352;2023-04-15T16:06:50;20.50;;;16.83;;
7047;SDS011;3565;53.254;10.352;2023-04-15T16:09:19;20.20;;;17.10;;
7047;SDS011;3565;53.254;10.352;2023-04-15T16:14:26;20.37;;;16.00;;
7047;SDS011;3565;53.254;10.352;2023-04-15T16:16:55;20.87;;;17.10;;
7047;SDS011;3565;53.254;10.352;2023-04-15T16:19:34;20.40;;;16.27;;
7047;SDS011;3565;53.254;10.352;2023-04-15T16:24:41;20.87;;;16.57;;
7047;SDS011;3565;53.254;10.352;2023-04-15T16:27:10;21.47;;;16.67;;
7047;SDS011;3565;53.254;10.352;2023-04-15T16:29:50;19.93;;;16.60;;
7047;SDS011;3565;53.254;10.352;2023-04-15T16:32:19;20.17;;;16.00;;
7047;SDS011;3565;53.254;10.352;2023-04-15T16:37:32;20.63;;;15.63;;
7047;SDS011;3565;53.254;10.352;2023-04-15T16:42:38;20.20;;;16.47;;
7047;SDS011;3565;53.254;10.352;2023-04-15T16:45:10;21.07;;;17.57;;
7047;SDS011;3565;53.254;10.352;2023-04-15T16:47:52;21.13;;;16.67;;
7047;SDS011;3565;53.254;10.352;2023-04-15T16:50:23;21.70;;;17.17;;
7047;SDS011;3565;53.254;10.352;2023-04-15T16:52:52;24.43;;;18.47;;
7047;SDS011;3565;53.254;10.352;2023-04-15T16:55:23;22.10;;;17.93;;
7047;SDS011;3565;53.254;10.352;2023-04-15T17:00:32;29.17;;;21.10;;
7047;SDS011;3565;53.254;10.352;2023-04-15T17:03:03;52.53;;;33.57;;
7047;SDS011;3565;53.254;10.352;2023-04-15T17:05:44;58.77;;;45.80;;
7047;SDS011;3565;53.254;10.352;2023-04-15T17:08:14;28.87;;;20.53;;
7047;SDS011;3565;53.254;10.352;2023-04-15T17:13:22;25.03;;;19.70;;
7047;SDS011;3565;53.254;10.352;2023-04-15T17:15:51;28.23;;;19.43;;
7047;SDS011;3565;53.254;10.352;2023-04-15T17:18:22;26.43;;;20.03;;
7047;SDS011;3565;53.254;10.352;2023-04-15T17:20:51;27.03;;;21.10;;
7047;SDS011;3565;53.254;10.352;2023-04-15T17:23:24;26.30;;;20.80;;
7047;SDS011;3565;53.254;10.352;2023-04-15T17:25:54;27.33;;;20.70;;
7047;SDS011;3565;53.254;10.352;2023-04-15T17:28:33;29.93;;;21.43;;
7047;SDS011;3565;53.254;10.352;2023-04-15T17:31:04;31.20;;;22.90;;
7047;SDS011;3565;53.254;10.352;2023-04-15T17:36:11;30.17;;;21.63;;
7047;SDS011;3565;53.254;10.352;2023-04-15T17:38:40;28.60;;;21.97;;
7047;SDS011;3565;53.254;10.352;2023-04-15T17:43:51;30.10;;;23.10;;
7047;SDS011;3565;53.254;10.352;2023-04-15T17:46:20;31.47;;;23.13;;
7047;SDS011;3565;53.254;10.352;2023-04-15T17:51:27;30.97;;;23.30;;
7047;SDS011;3565;53.254;10.352;2023-04-15T17:53:57;32.50;;;23.57;;
7047;SDS011;3565;53.254;10.352;2023-04-15T17:56:27;31.77;;;23.37;;
7047;SDS011;3565;53.254;10.352;2023-04-15T17:58:56;35.17;;;24.93;;
7047;SDS011;3565;53.254;10.352;2023-04-15T18:01:28;33.03;;;24.77;;
7047;SDS011;3565;53.254;10.352;2023-04-15T18:03:57;29.87;;;23.07;;
7047;SDS011;3565;53.254;10.352;2023-04-15T18:06:26;34.77;;;23.17;;
7047;SDS011;3565;53.254;10.352;2023-04-15T18:11:36;35.00;;;25.13;;
7047;SDS011;3565;53.254;10.352;2023-04-15T18:14:08;32.47;;;24.43;;
7047;SDS011;3565;53.254;10.352;2023-04-15T18:16:47;33.43;;;25.47;;
7047;SDS011;3565;53.254;10.352;2023-04-15T18:19:18;36.23;;;24.73;;
7047;SDS011;3565;53.254;10.352;2023-04-15T18:24:25;32.03;;;24.10;;
7047;SDS011;3565;53.254;10.352;2023-04-15T18:26:55;32.57;;;24.27;;
7047;SDS011;3565;53.254;10.352;2023-04-15T18:29:34;34.70;;;24.77;;
7047;SDS011;3565;53.254;10.352;2023-04-15T18:32:03;34.37;;;24.33;;
7047;SDS011;3565;53.254;10.352;2023-04-15T18:34:33;35.17;;;24.83;;
7047;SDS011;3565;53.254;10.352;2023-04-15T18:39:40;35.13;;;25.83;;
7047;SDS011;3565;53.254;10.352;2023-04-15T18:44:48;37.07;;;25.60;;
7047;SDS011;3565;53.254;10.352;2023-04-15T18:47:18;34.53;;;24.63;;
7047;SDS011;3565;53.254;10.352;2023-04-15T18:49:47;37.93;;;25.43;;
7047;SDS011;3565;53.254;10.352;2023-04-15T18:52:17;38.00;;;25.23;;
7047;SDS011;3565;53.254;10.352;2023-04-15T18:54:56;33.63;;;25.10;;
7047;SDS011;3565;53.254;10.352;2023-04-15T18:57:25;37.00;;;26.33;;
7047;SDS011;3565;53.254;10.352;2023-04-15T18:59:55;36.10;;;25.37;;
7047;SDS011;3565;53.254;10.352;2023-04-15T19:02:24;38.53;;;26.43;;
7047;SDS011;3565;53.254;10.352;2023-04-15T19:07:35;36.93;;;26.03;;
7047;SDS011;3565;53.254;10.352;2023-04-15T19:10:05;38.30;;;26.90;;
7047;SDS011;3565;53.254;10.352;2023-04-15T19:12:48;36.63;;;25.60;;
7047;SDS011;3565;53.254;10.352;2023-04-15T19:15:20;34.77;;;26.27;;
7047;SDS011;3565;53.254;10.352;2023-04-15T19:17:49;38.23;;;26.03;;
7047;SDS011;3565;53.254;10.352;2023-04-15T19:20:28;41.60;;;28.70;;
7047;SDS011;3565;53.254;10.352;2023-04-15T19:25:36;41.23;;;27.67;;
7047;SDS011;3565;53.254;10.352;2023-04-15T19:28:06;41.83;;;27.50;;
7047;SDS011;3565;53.254;10.352;2023-04-15T19:33:13;43.90;;;29.70;;
7047;SDS011;3565;53.254;10.352;2023-04-15T19:35:42;41.20;;;29.83;;